メインページ
METAR-TAF:

METAR-TAF

空港 :

バマコ, マリ共和国

バマコ・セヌー国際空港

緯度: 12-32N, 経度: 007-57W, 海抜: 380m

現時点の気象観測

当レポートは24分前の01:30(UTC)に作成
の風 8kt
気温 24°C
湿度 20%
気圧 1015 hPa
視程: 6000m

METAR: GABS 180130Z 01008KT 6000 NSC 24/00 Q1015 NOSIG

時間: 01:54 (01:54 UTC)

予報

当レポートは2時間44分前の23:10(UTC)に作成
予報は18日の 00時(UTC)から 19日の 06時(UTC)まで有効
の風 8kt
視程: 6000m
確率 40% :
18日の 07時(UTC)から 18日の 14時(UTC)まで一時的に
視程: 4000m
広範な塵

TAF: GABS 172310Z 1800/1906 36008KT 6000 NSC PROB40 TEMPO 1807/1814 4000 DU

4,000以上の空港の気象観測と天気予報(METAR報とTAF報)

利用可能な観測所は地図上に黄色い丸と赤い丸で示す。

丸の上にカーソルを重ねると観測所名を参照できる。

次にクリックすると気象観測と天気予報を参照できる。

マップの切り替え:黒色「×」印の緑ボタンをクリックして拡大、「-」印の緑ボタンをクリックして縮小、緑色の三角印をクリックして隣りの地図に切り替え


METAR-TAF: